Time;durP1;ratioP1;P1;durP2;ratioP2;P2;SDS_P1;SDS_P2;PMS_P1;PMS_P2;Temp;Humidity;BMP_temperature;BMP_pressure;BME280_temperature;BME280_humidity;BME280_pressure;Samples;Min_cycle;Max_cycle;Signal;HPM_P1;HPM_P2
2024/03/03 00:01:31;;;;;;;9.98;7.07;;;;;;;12.38;53.23;98377.53;4816118;29;20058;-86
2024/03/03 00:03:58;;;;;;;10.23;7.05;;;;;;;12.37;53.37;98375.88;4816130;29;20637;-86
2024/03/03 00:06:25;;;;;;;10.18;6.88;;;;;;;12.37;53.45;98375.03;4816060;29;20101;-86
2024/03/03 00:08:51;;;;;;;9.70;6.78;;;;;;;12.36;53.50;98371.56;4834392;29;20148;-87
2024/03/03 00:11:18;;;;;;;10.52;7.15;;;;;;;12.36;53.54;98366.28;4819110;29;20065;-86
2024/03/03 00:13:44;;;;;;;9.27;6.60;;;;;;;12.36;53.53;98376.00;4819094;29;20587;-86
2024/03/03 00:16:11;;;;;;;9.75;7.07;;;;;;;12.35;53.74;98367.25;4830334;29;20128;-86
2024/03/03 00:18:38;;;;;;;8.93;6.43;;;;;;;12.36;53.62;98366.28;4839522;29;20066;-86
2024/03/03 00:24:00;;;;;;;10.50;7.18;;;;;;;12.34;53.62;98370.84;5284581;24;20072;-91
2024/03/03 00:26:27;;;;;;;8.98;6.47;;;;;;;12.38;53.79;98366.16;4827076;29;20137;-91
2024/03/03 00:28:53;;;;;;;8.95;6.38;;;;;;;12.38;53.63;98377.53;4826685;29;20062;-92
2024/03/03 00:31:30;;;;;;;10.38;6.90;;;;;;;12.35;53.80;98374.34;4826977;29;20530;-92
2024/03/03 00:33:56;;;;;;;10.10;6.55;;;;;;;12.39;53.88;98381.03;4827024;29;20085;-92
2024/03/03 00:36:24;;;;;;;9.15;6.32;;;;;;;12.37;53.77;98372.38;4826738;29;20058;-91
2024/03/03 00:39:19;;;;;;;9.80;6.85;;;;;;;12.33;53.78;98378.91;4842618;29;20567;-92
2024/03/03 00:41:46;;;;;;;9.88;6.85;;;;;;;12.37;53.71;98375.03;4826852;29;20088;-91
2024/03/03 00:44:13;;;;;;;8.40;6.72;;;;;;;12.33;53.85;98366.53;4842565;29;20137;-92
2024/03/03 00:50:27;;;;;;;10.13;6.93;;;;;;;12.27;53.66;98375.00;4838605;29;20468;-92
2024/03/03 00:53:10;;;;;;;11.20;7.20;;;;;;;12.16;53.94;98359.25;4843101;29;20529;-91
2024/03/03 00:55:36;;;;;;;;;;;;;;;12.16;53.27;98357.47;4827402;29;20061;-92
2024/03/03 00:58:20;;;;;;;7.85;6.43;;;;;;;12.11;53.72;98357.84;4826507;29;19988;-91
2024/03/03 01:00:47;;;;;;;10.65;6.63;;;;;;;12.10;53.89;98363.25;4826347;29;20438;-92
2024/03/03 01:03:14;;;;;;;10.77;7.05;;;;;;;12.05;54.12;98361.03;4826221;29;20555;-91
2024/03/03 01:06:04;;;;;;;9.90;7.00;;;;;;;11.97;54.05;98363.47;4826425;29;20058;-91
2024/03/03 01:08:31;;;;;;;9.82;6.88;;;;;;;11.97;53.98;98364.28;4826236;29;20058;-91
2024/03/03 01:11:00;;;;;;;10.57;7.30;;;;;;;11.95;54.53;98360.09;4842559;29;20415;-92
2024/03/03 01:13:26;;;;;;;11.70;8.23;;;;;;;11.91;54.40;98364.81;4826291;29;20082;-91
2024/03/03 01:15:53;;;;;;;11.20;7.65;;;;;;;11.88;54.72;98362.44;4826528;29;20061;-92
2024/03/03 01:18:29;;;;;;;12.00;7.97;;;;;;;11.82;54.63;98360.31;4842439;29;20071;-92
2024/03/03 01:20:56;;;;;;;9.82;7.15;;;;;;;11.82;54.66;98366.41;4826067;29;20062;-91
2024/03/03 01:23:22;;;;;;;10.80;7.57;;;;;;;11.80;54.65;98359.59;4826410;29;20140;-92
2024/03/03 01:25:49;;;;;;;13.50;7.80;;;;;;;11.77;54.70;98365.16;4825933;29;20434;-92
2024/03/03 01:28:31;;;;;;;15.68;7.60;;;;;;;11.72;54.89;98370.81;4826208;29;20145;-92
2024/03/03 01:30:58;;;;;;;12.27;8.10;;;;;;;11.72;54.93;98369.00;4842251;29;20058;-92
2024/03/03 01:33:25;;;;;;;10.10;7.75;;;;;;;11.69;55.00;98363.16;4826127;29;20054;-93
2024/03/03 01:35:53;;;;;;;11.57;8.18;;;;;;;11.66;55.11;98358.97;4827359;29;20069;-92
2024/03/03 01:38:20;;;;;;;10.13;7.35;;;;;;;11.63;55.06;98364.53;4829376;29;20148;-93
2024/03/03 01:40:57;;;;;;;11.40;7.85;;;;;;;11.55;55.32;98357.25;4829122;29;20068;-93
2024/03/03 01:43:24;;;;;;;11.90;7.97;;;;;;;11.55;55.10;98351.97;4829661;29;20487;-93
2024/03/03 01:46:10;;;;;;;12.40;8.32;;;;;;;11.46;55.38;98358.00;4845561;29;20148;-93
2024/03/03 01:48:37;;;;;;;12.75;8.10;;;;;;;11.47;55.23;98349.97;4846084;29;20062;-93
2024/03/03 01:51:05;;;;;;;14.73;8.32;;;;;;;11.40;55.48;98348.81;4829455;29;20053;-93
2024/03/03 01:54:13;;;;;;;11.98;8.00;;;;;;;11.31;55.64;98345.16;4845844;29;20392;-93
2024/03/03 01:56:45;;;;;;;12.90;8.15;;;;;;;11.30;55.75;98343.50;4829441;29;20547;-93
2024/03/03 01:59:12;;;;;;;13.35;8.23;;;;;;;11.28;55.61;98341.94;4822601;29;20560;-93
2024/03/03 02:01:59;;;;;;;11.15;8.05;;;;;;;11.21;56.03;98349.50;4829191;29;20058;-92
2024/03/03 02:04:25;;;;;;;10.77;7.43;;;;;;;11.22;55.97;98335.41;4828992;29;20061;-92
2024/03/03 02:06:55;;;;;;;11.90;7.93;;;;;;;11.19;56.33;98339.13;4829392;29;20427;-92
2024/03/03 02:09:22;;;;;;;12.20;8.80;;;;;;;11.19;56.02;98339.13;4829180;29;20062;-93
2024/03/03 02:11:59;;;;;;;13.07;8.73;;;;;;;11.15;56.70;98329.81;4828967;29;20064;-92
2024/03/03 02:14:25;;;;;;;12.10;7.50;;;;;;;11.18;56.35;98324.25;4828706;29;20056;-93
2024/03/03 02:16:52;;;;;;;12.43;8.15;;;;;;;11.18;56.41;98331.34;4845338;29;20145;-93
2024/03/03 02:19:36;;;;;;;13.18;8.18;;;;;;;11.13;56.73;98325.59;4829152;29;20140;-92
2024/03/03 02:22:03;;;;;;;13.85;8.35;;;;;;;11.19;56.42;98322.47;4845415;29;20060;-93
2024/03/03 02:24:30;;;;;;;12.07;8.18;;;;;;;11.17;56.47;98317.31;4844789;29;20141;-93
2024/03/03 02:30:11;;;;;;;12.25;8.15;;;;;;;11.16;56.37;98320.09;4845218;29;20096;-92
2024/03/03 02:32:45;;;;;;;13.27;8.00;;;;;;;11.11;56.76;98312.56;4828830;29;20404;-92
2024/03/03 02:35:11;;;;;;;12.07;8.20;;;;;;;11.12;56.55;98308.97;4821810;29;20126;-93
2024/03/03 02:37:39;;;;;;;12.68;8.15;;;;;;;11.10;56.58;98312.69;4828703;29;20074;-93
2024/03/03 02:40:07;;;;;;;12.13;8.50;;;;;;;11.07;56.68;98306.72;4828656;29;20057;-93
2024/03/03 02:42:33;;;;;;;15.57;8.07;;;;;;;11.07;56.69;98298.00;4828568;29;20062;-92
2024/03/03 02:45:04;;;;;;;12.40;8.40;;;;;;;11.03;56.83;98300.03;4828598;29;20061;-92
2024/03/03 02:47:31;;;;;;;13.45;8.38;;;;;;;11.03;56.71;98300.03;4827704;29;20089;-93
2024/03/03 02:50:10;;;;;;;12.65;8.27;;;;;;;10.99;57.02;98298.59;4844786;29;20085;-93
2024/03/03 02:52:37;;;;;;;12.98;8.10;;;;;;;11.02;57.31;98298.38;4844691;29;20522;-92
2024/03/03 02:55:12;;;;;;;11.95;7.85;;;;;;;10.98;57.31;98294.31;4828257;29;20061;-92
2024/03/03 02:57:39;;;;;;;14.10;7.82;;;;;;;11.02;56.90;98300.16;4828250;29;20074;-92
2024/03/03 03:00:22;;;;;;;13.18;8.27;;;;;;;10.99;57.23;98306.50;4828420;29;20430;-92
2024/03/03 03:02:48;;;;;;;15.13;8.00;;;;;;;11.03;57.05;98300.03;4828317;29;20058;-92
2024/03/03 03:05:25;;;;;;;12.20;8.38;;;;;;;11.00;57.40;98307.34;4828338;29;20081;-93
2024/03/03 03:07:52;;;;;;;12.15;8.30;;;;;;;11.03;56.91;98305.28;4828109;29;20069;-93
2024/03/03 03:10:34;;;;;;;13.32;8.43;;;;;;;10.99;57.40;98298.59;4828031;29;20062;-93
2024/03/03 03:13:00;;;;;;;13.52;8.93;;;;;;;11.03;57.21;98305.28;4827824;29;20062;-92
2024/03/03 03:15:28;;;;;;;12.20;8.10;;;;;;;11.01;57.22;98293.22;4828091;29;20132;-93
2024/03/03 03:18:17;;;;;;;12.52;8.35;;;;;;;10.97;57.49;98295.28;4828031;29;20069;-92
2024/03/03 03:20:44;;;;;;;14.05;8.13;;;;;;;11.00;57.02;98296.81;4844495;29;20137;-92
2024/03/03 03:23:10;;;;;;;12.13;8.10;;;;;;;11.00;57.14;98288.91;4827998;29;20558;-93
2024/03/03 03:26:03;;;;;;;11.35;7.93;;;;;;;10.93;57.47;98292.06;4827640;29;20060;-93
2024/03/03 03:28:30;;;;;;;12.25;8.43;;;;;;;10.94;57.15;98291.09;4822174;29;20149;-92
2024/03/03 03:30:56;;;;;;;12.75;8.63;;;;;;;10.91;57.10;98286.09;4827937;29;20128;-93
2024/03/03 03:33:48;;;;;;;12.68;8.52;;;;;;;10.82;57.38;98298.22;4844112;29;20058;-92
2024/03/03 03:36:17;;;;;;;11.95;8.10;;;;;;;10.84;57.08;98300.69;4827920;29;20060;-93
2024/03/03 03:39:12;;;;;;;14.88;9.18;;;;;;;10.74;57.49;98294.53;4827844;29;20096;-93
2024/03/03 03:41:45;;;;;;;12.27;7.55;;;;;;;10.73;57.41;98298.13;4827736;29;20057;-92
2024/03/03 03:44:48;;;;;;;12.70;8.52;;;;;;;10.66;57.72;98293.34;4827179;29;20058;-93
2024/03/03 03:47:14;;;;;;;12.40;8.40;;;;;;;10.66;57.63;98298.59;4827645;29;20400;-92
2024/03/03 03:49:41;;;;;;;11.30;8.20;;;;;;;10.64;57.74;98297.06;4827514;29;20058;-92
2024/03/03 03:52:12;;;;;;;14.05;7.80;;;;;;;10.60;58.19;98303.53;4827408;29;20422;-93
2024/03/03 03:54:38;;;;;;;12.15;8.52;;;;;;;10.59;57.88;98301.88;4827658;29;20452;-93
2024/03/03 04:00:28;;;;;;;11.93;8.63;;;;;;;10.56;57.94;98302.94;4836829;29;20054;-92
2024/03/03 04:02:56;;;;;;;12.60;8.32;;;;;;;10.54;58.04;98302.22;4827404;29;20366;-92
2024/03/03 04:05:23;;;;;;;12.77;8.20;;;;;;;10.52;58.12;98310.25;4827384;29;20053;-93
2024/03/03 04:07:49;;;;;;;11.93;8.15;;;;;;;10.51;58.33;98311.19;4827535;29;20474;-92
2024/03/03 04:10:22;;;;;;;13.10;7.97;;;;;;;10.48;58.60;98321.16;4843119;29;20062;-93
2024/03/03 04:12:49;;;;;;;11.80;7.90;;;;;;;10.51;58.33;98321.72;4827386;29;20053;-92
2024/03/03 04:15:42;;;;;;;14.43;8.25;;;;;;;10.49;58.54;98335.97;4826986;29;20088;-92
2024/03/03 04:18:09;;;;;;;11.60;7.47;;;;;;;10.53;58.39;98335.59;4826857;29;20089;-94
2024/03/03 04:33:48;;;;;;;11.77;7.70;;;;;;;10.53;57.92;98334.75;6167988;22;1337920;-92
2024/03/03 04:36:15;;;;;;;11.35;7.53;;;;;;;10.50;58.21;98325.31;6197673;23;20037;-93
2024/03/03 04:38:42;;;;;;;12.00;8.43;;;;;;;10.48;58.31;98313.25;6197809;23;20051;-93
2024/03/03 04:41:15;;;;;;;11.88;7.82;;;;;;;10.45;58.76;98322.22;6224199;23;20031;-93
2024/03/03 04:43:42;;;;;;;11.80;7.97;;;;;;;10.49;58.61;98317.53;6223929;23;20021;-92
2024/03/03 04:46:33;;;;;;;11.88;7.93;;;;;;;10.47;58.66;98317.66;6198121;23;20063;-93
2024/03/03 04:49:00;;;;;;;12.13;7.97;;;;;;;10.52;58.64;98320.78;6224191;23;20461;-93
2024/03/03 04:51:29;;;;;;;11.15;7.53;;;;;;;10.53;58.79;98317.19;6197507;23;20390;-92
2024/03/03 04:53:55;;;;;;;12.30;8.25;;;;;;;10.57;58.66;98322.22;6197806;23;20099;-93
2024/03/03 04:56:27;;;;;;;13.60;8.40;;;;;;;10.55;58.78;98314.44;6197482;23;20106;-93
2024/03/03 04:58:54;;;;;;;10.20;7.55;;;;;;;10.58;58.45;98308.09;6197528;23;20095;-93
2024/03/03 05:01:27;;;;;;;12.68;8.23;;;;;;;10.53;58.60;98309.31;6197811;23;20020;-93
2024/03/03 05:03:53;;;;;;;12.50;8.55;;;;;;;10.53;58.46;98297.94;6197844;23;20056;-94
2024/03/03 05:06:22;;;;;;;11.80;7.65;;;;;;;10.48;58.41;98287.78;6197795;23;20063;-93
2024/03/03 05:08:49;;;;;;;12.65;8.05;;;;;;;10.45;58.33;98287.19;6224023;23;20316;-93
2024/03/03 05:11:42;;;;;;;11.73;8.15;;;;;;;10.35;58.74;98284.44;6197361;23;20048;-93
2024/03/03 05:14:08;;;;;;;11.90;7.70;;;;;;;10.35;58.52;98279.19;6223570;23;20024;-93
2024/03/03 05:16:55;;;;;;;12.13;8.38;;;;;;;10.25;58.95;98272.00;6197696;23;20075;-93
2024/03/03 05:19:23;;;;;;;13.25;7.90;;;;;;;10.24;58.81;98270.34;6197159;23;20025;-93
2024/03/03 05:21:50;;;;;;;12.23;8.18;;;;;;;10.20;58.94;98273.34;6197704;23;20020;-93
2024/03/03 05:24:40;;;;;;;11.35;7.90;;;;;;;10.13;59.38;98273.00;6197335;23;20028;-93
2024/03/03 05:27:07;;;;;;;13.32;8.50;;;;;;;10.13;59.26;98273.81;6197710;23;20342;-94
2024/03/03 05:29:36;;;;;;;12.65;8.15;;;;;;;10.11;59.43;98277.53;6224031;23;20440;-93
2024/03/03 05:32:14;;;;;;;12.93;8.02;;;;;;;10.07;59.61;98276.09;6189954;23;20100;-93
2024/03/03 05:34:55;;;;;;;12.10;7.93;;;;;;;10.06;59.75;98274.44;6216471;23;20020;-92
2024/03/03 05:37:22;;;;;;;11.48;8.07;;;;;;;10.08;59.38;98276.00;6216993;23;20100;-93
2024/03/03 05:40:01;;;;;;;11.55;7.90;;;;;;;10.03;60.07;98272.88;6190582;23;20024;-93
2024/03/03 05:42:27;;;;;;;12.15;8.38;;;;;;;10.06;59.70;98285.81;6190378;23;20021;-93
2024/03/03 05:45:05;;;;;;;13.02;8.50;;;;;;;10.03;60.03;98293.91;6190751;23;20532;-93
2024/03/03 05:47:32;;;;;;;13.95;9.10;;;;;;;10.06;59.76;98303.34;6190566;23;20082;-93
2024/03/03 05:49:58;;;;;;;14.05;8.43;;;;;;;10.06;60.11;98314.72;6190164;23;20031;-93
2024/03/03 05:52:27;;;;;;;14.38;8.63;;;;;;;10.07;60.27;98331.31;6190686;23;20062;-93
2024/03/03 05:54:54;;;;;;;13.52;8.70;;;;;;;10.10;60.10;98344.22;6216850;23;20099;-93
2024/03/03 05:57:28;;;;;;;12.93;8.60;;;;;;;10.11;60.21;98353.78;6189982;23;20016;-93
2024/03/03 05:59:54;;;;;;;12.27;8.50;;;;;;;10.16;59.95;98370.03;6216124;23;20047;-93
2024/03/03 06:02:22;;;;;;;14.95;8.57;;;;;;;10.19;59.85;98380.31;6216856;23;20372;-93
2024/03/03 06:04:48;;;;;;;11.93;8.50;;;;;;;10.21;60.00;98373.13;6190436;23;20504;-92
2024/03/03 06:07:15;;;;;;;11.32;7.85;;;;;;;10.24;59.89;98372.91;6190096;23;20052;-93
2024/03/03 06:09:58;;;;;;;12.10;8.75;;;;;;;10.23;60.20;98355.47;6189951;23;20021;-93
2024/03/03 06:12:25;;;;;;;11.70;8.30;;;;;;;10.30;59.93;98359.28;6190061;23;20023;-93
2024/03/03 06:15:06;;;;;;;15.10;8.68;;;;;;;10.29;60.26;98359.41;6216449;23;20021;-91
2024/03/03 06:17:32;;;;;;;11.85;8.30;;;;;;;10.34;60.13;98365.13;6215934;23;20447;-90
2024/03/03 06:20:08;;;;;;;14.13;8.40;;;;;;;10.32;60.34;98359.16;6216010;23;20017;-93
2024/03/03 06:22:35;;;;;;;15.00;9.43;;;;;;;10.37;60.17;98366.69;6190266;23;20378;-92
2024/03/03 06:25:08;;;;;;;12.43;8.68;;;;;;;10.36;60.32;98371.09;6190150;23;20406;-92
2024/03/03 06:27:35;;;;;;;11.27;7.97;;;;;;;10.38;60.24;98366.56;6190072;23;20099;-92
2024/03/03 06:30:37;;;;;;;13.80;9.10;;;;;;;10.37;60.34;98366.69;6215857;23;20079;-92
2024/03/03 06:33:14;;;;;;;13.25;8.35;;;;;;;10.42;60.31;98372.41;6216076;23;20119;-92
2024/03/03 06:35:40;;;;;;;12.73;8.63;;;;;;;10.47;60.17;98375.53;6189929;23;20490;-92
2024/03/03 06:38:07;;;;;;;12.85;8.95;;;;;;;10.51;60.48;98386.69;6189527;23;20024;-92
2024/03/03 06:40:44;;;;;;;11.40;8.50;;;;;;;10.52;60.58;98378.66;6215847;23;20055;-91
2024/03/03 06:43:10;;;;;;;12.00;8.05;;;;;;;10.61;60.49;98381.53;6189274;23;20350;-92
2024/03/03 06:46:18;;;;;;;12.23;8.43;;;;;;;10.61;60.64;98371.00;6189895;23;20032;-92
2024/03/03 06:48:44;;;;;;;17.98;8.23;;;;;;;10.68;60.42;98377.44;6189897;23;20028;-91
2024/03/03 06:51:12;;;;;;;14.73;8.90;;;;;;;10.71;60.42;98373.72;6189090;23;20458;-91
2024/03/03 06:53:47;;;;;;;12.68;8.80;;;;;;;10.71;60.72;98373.72;6189611;23;20095;-91
2024/03/03 06:56:15;;;;;;;13.88;9.02;;;;;;;10.76;60.49;98372.41;6189412;23;20087;-92
2024/03/03 06:58:47;;;;;;;11.77;8.52;;;;;;;10.75;60.84;98375.16;6189120;23;20024;-91
2024/03/03 07:01:13;;;;;;;14.02;9.32;;;;;;;10.78;60.49;98381.03;6188869;23;20017;-92
2024/03/03 07:04:19;;;;;;;16.95;9.45;;;;;;;10.77;60.64;98392.47;6189302;23;20078;-92
2024/03/03 07:06:46;;;;;;;14.90;9.55;;;;;;;10.84;60.63;98386.75;6189622;23;20107;-91
2024/03/03 07:12:40;;;;;;;14.85;9.30;;;;;;;10.88;60.33;98396.06;6215821;23;20071;-91
2024/03/03 07:15:08;;;;;;;14.13;9.07;;;;;;;10.89;60.39;98403.00;6215109;23;20024;-92
2024/03/03 07:17:35;;;;;;;14.65;9.82;;;;;;;10.90;60.30;98396.78;6215253;23;20051;-92
2024/03/03 07:20:05;;;;;;;13.05;9.65;;;;;;;10.92;60.36;98403.59;6189140;23;20087;-91
2024/03/03 07:23:04;;;;;;;13.75;9.85;;;;;;;10.91;60.90;98407.19;6189404;23;20025;-91
2024/03/03 07:25:30;;;;;;;16.65;9.40;;;;;;;10.99;60.70;98417.09;6189447;23;20107;-92
2024/03/03 07:27:57;;;;;;;16.58;10.35;;;;;;;11.03;60.69;98409.81;6189480;23;20324;-91
2024/03/03 07:30:44;;;;;;;16.20;10.00;;;;;;;11.03;60.78;98421.16;6189311;23;20016;-92
2024/03/03 07:33:10;;;;;;;14.32;9.25;;;;;;;11.13;60.91;98415.13;6215389;23;20025;-91
2024/03/03 07:35:37;;;;;;;13.20;9.57;;;;;;;11.16;60.89;98415.75;6189200;23;20025;-91
2024/03/03 07:38:25;;;;;;;14.50;10.02;;;;;;;11.18;60.78;98418.25;6189127;23;20391;-91
2024/03/03 07:40:51;;;;;;;14.38;9.68;;;;;;;11.26;60.69;98421.09;6189049;23;20452;-92
2024/03/03 07:43:34;;;;;;;16.75;9.88;;;;;;;11.27;60.59;98424.56;6188862;23;20059;-91
2024/03/03 07:46:00;;;;;;;14.43;9.68;;;;;;;11.36;60.62;98429.06;6189174;23;20028;-91
2024/03/03 07:48:40;;;;;;;13.98;9.00;;;;;;;11.36;60.70;98429.06;6215244;23;20567;-92
2024/03/03 07:51:07;;;;;;;13.68;9.50;;;;;;;11.45;60.66;98423.03;6189222;23;20431;-91
2024/03/03 07:53:33;;;;;;;15.02;10.15;;;;;;;11.50;60.69;98420.03;6214931;23;20024;-91
2024/03/03 07:56:00;;;;;;;14.15;9.80;;;;;;;11.54;60.55;98418.81;6189053;23;20032;-91
2024/03/03 07:58:27;;;;;;;13.48;9.38;;;;;;;11.57;60.48;98417.72;6214604;23;20027;-91
2024/03/03 08:01:04;;;;;;;14.88;9.85;;;;;;;11.58;60.41;98425.50;6214485;23;20027;-91
2024/03/03 08:03:32;;;;;;;14.05;10.07;;;;;;;11.64;60.53;98425.97;6214435;23;20018;-91
2024/03/03 08:06:18;;;;;;;14.02;9.55;;;;;;;11.63;60.35;98419.88;6188408;23;20088;-91
2024/03/03 08:08:45;;;;;;;14.40;9.55;;;;;;;11.72;60.65;98420.88;6188421;23;20017;-94
2024/03/03 08:11:33;;;;;;;13.30;9.35;;;;;;;11.72;60.52;98420.88;6214399;23;20013;-91
2024/03/03 08:14:02;;;;;;;11.77;8.75;;;;;;;11.82;60.91;98424.41;6188330;23;20473;-91
2024/03/03 08:16:36;;;;;;;15.07;9.73;;;;;;;11.88;60.93;98424.88;6188960;23;20467;-92
2024/03/03 08:19:03;;;;;;;15.30;9.90;;;;;;;11.97;61.06;98413.56;6188662;23;20055;-92
2024/03/03 08:21:52;;;;;;;15.02;10.20;;;;;;;12.01;60.56;98416.75;6188302;23;20020;-91
2024/03/03 08:24:19;;;;;;;14.27;9.45;;;;;;;12.11;60.77;98410.59;6188725;23;20342;-91
2024/03/03 08:27:01;;;;;;;13.93;9.73;;;;;;;12.14;60.33;98408.69;6188662;23;20478;-91
2024/03/03 08:29:27;;;;;;;12.70;8.90;;;;;;;12.24;60.80;98412.19;6188623;23;20478;-91
2024/03/03 08:32:04;;;;;;;14.55;9.90;;;;;;;12.27;60.54;98417.22;6188430;23;20027;-91
2024/03/03 08:34:31;;;;;;;14.00;9.52;;;;;;;12.37;60.84;98418.09;6188949;23;20029;-91
2024/03/03 08:36:58;;;;;;;13.95;9.55;;;;;;;12.45;60.69;98416.59;6188542;23;20044;-92
2024/03/03 08:39:37;;;;;;;15.25;9.00;;;;;;;12.47;60.23;98414.66;6188356;23;20025;-91
2024/03/03 08:42:04;;;;;;;13.57;9.98;;;;;;;12.56;60.30;98419.13;6188911;23;20407;-91
2024/03/03 08:44:31;;;;;;;15.45;9.85;;;;;;;12.59;60.53;98418.88;6188454;23;20029;-91
2024/03/03 08:47:38;;;;;;;16.40;10.02;;;;;;;12.61;59.98;98419.59;6189068;23;20432;-93
2024/03/03 08:50:05;;;;;;;12.52;8.75;;;;;;;12.72;60.24;98423.06;6189279;23;20021;-93
2024/03/03 08:52:32;;;;;;;12.18;8.90;;;;;;;12.77;60.29;98416.44;6189291;23;20035;-93
2024/03/03 08:55:01;;;;;;;11.80;9.38;;;;;;;12.82;60.20;98418.66;6215160;23;20027;-93
2024/03/03 08:57:28;;;;;;;14.02;9.95;;;;;;;12.90;60.31;98418.81;6189375;23;20066;-92
2024/03/03 08:59:54;;;;;;;14.85;10.00;;;;;;;12.99;60.31;98421.59;6189357;23;20443;-92
2024/03/03 09:03:07;;;;;;;13.13;9.25;;;;;;;13.05;59.86;98418.44;6188712;23;20103;-92
2024/03/03 09:05:34;;;;;;;13.15;8.20;;;;;;;13.21;60.13;98409.97;6189227;23;20100;-92
2024/03/03 09:08:02;;;;;;;15.30;9.23;;;;;;;13.30;60.36;98408.28;6190897;23;20024;-92
2024/03/03 09:10:46;;;;;;;13.75;8.75;;;;;;;13.37;59.99;98409.41;6216906;23;20044;-92
2024/03/03 09:13:13;;;;;;;14.32;8.48;;;;;;;13.53;60.25;98410.72;6190595;23;20111;-92
2024/03/03 09:15:39;;;;;;;13.77;9.27;;;;;;;13.62;60.32;98415.16;6217726;23;20020;-93
2024/03/03 09:18:26;;;;;;;14.68;9.05;;;;;;;13.70;59.38;98410.94;6190664;23;20083;-92
2024/03/03 09:20:52;;;;;;;13.23;9.65;;;;;;;13.81;59.74;98408.16;6190846;23;20095;-92
2024/03/03 09:23:19;;;;;;;13.45;9.52;;;;;;;13.89;59.80;98412.72;6190476;23;20079;-93
2024/03/03 09:25:46;;;;;;;14.32;9.77;;;;;;;13.96;59.62;98405.06;6190677;23;20024;-92
2024/03/03 09:28:12;;;;;;;13.05;9.73;;;;;;;14.03;59.53;98406.16;6190223;23;20095;-90
2024/03/03 09:30:39;;;;;;;14.25;9.38;;;;;;;14.10;59.68;98407.28;6216578;23;20343;-91
2024/03/03 09:33:26;;;;;;;13.07;9.98;;;;;;;14.16;59.21;98417.25;6190095;23;20103;-91
2024/03/03 09:36:23;;;;;;;14.45;9.77;;;;;;;14.27;59.22;98415.41;6190131;23;20040;-91
2024/03/03 09:38:50;;;;;;;15.32;9.60;;;;;;;14.40;59.73;98413.28;6190094;23;20027;-91
2024/03/03 09:41:20;;;;;;;15.93;9.27;;;;;;;14.53;59.50;98406.81;6190015;23;20087;-92
2024/03/03 09:43:57;;;;;;;14.45;9.40;;;;;;;14.61;59.09;98411.38;6190104;23;20056;-91
2024/03/03 09:46:27;;;;;;;14.27;9.85;;;;;;;14.74;59.28;98409.22;6189760;23;20099;-91
2024/03/03 09:48:56;;;;;;;12.25;9.15;;;;;;;14.84;58.77;98412.69;6190239;23;20020;-91
2024/03/03 09:51:26;;;;;;;12.55;9.50;;;;;;;14.95;58.85;98408.16;6190509;23;20443;-92
2024/03/03 09:54:04;;;;;;;13.48;8.90;;;;;;;15.02;57.75;98411.06;6190139;23;20099;-91
2024/03/03 09:56:31;;;;;;;17.38;10.43;;;;;;;15.16;58.42;98410.53;6216283;23;20103;-91
2024/03/03 09:59:06;;;;;;;14.80;9.82;;;;;;;15.22;57.72;98401.97;6189755;23;20095;-91
2024/03/03 10:01:35;;;;;;;11.90;8.73;;;;;;;15.33;58.25;98408.03;6190899;23;20398;-93
2024/03/03 10:04:37;;;;;;;14.52;9.32;;;;;;;15.39;57.29;98411.91;6190569;23;20033;-93
2024/03/03 10:07:08;;;;;;;13.73;9.27;;;;;;;15.53;57.70;98406.06;6190364;23;20075;-93
2024/03/03 10:09:48;;;;;;;13.77;9.85;;;;;;;15.60;57.05;98403.63;6189933;23;20021;-92
2024/03/03 10:12:15;;;;;;;12.25;8.98;;;;;;;15.72;58.01;98406.84;6216552;23;20024;-92
2024/03/03 10:15:01;;;;;;;16.27;9.57;;;;;;;15.79;57.60;98402.59;6216543;23;20028;-93
2024/03/03 10:17:28;;;;;;;13.30;8.95;;;;;;;15.96;58.33;98402.75;6190087;23;20024;-93
2024/03/03 10:20:06;;;;;;;12.27;9.52;;;;;;;16.06;57.38;98403.47;6216565;23;20451;-92
2024/03/03 10:22:34;;;;;;;11.85;9.05;;;;;;;16.25;58.01;98398.91;6189865;23;20020;-92
2024/03/03 10:25:15;;;;;;;12.20;8.93;;;;;;;16.38;57.07;98399.31;6189780;23;20023;-93
2024/03/03 10:27:46;;;;;;;12.65;8.90;;;;;;;16.58;57.43;98399.09;6216544;23;20496;-92
2024/03/03 10:30:17;;;;;;;14.25;9.55;;;;;;;16.70;56.70;98396.16;6190182;23;20382;-93
2024/03/03 10:32:48;;;;;;;12.20;9.15;;;;;;;16.82;55.67;98399.34;6190310;23;20455;-92
2024/03/03 10:35:22;;;;;;;12.70;9.25;;;;;;;16.91;55.49;98388.56;6190122;23;20027;-91
2024/03/03 10:37:53;;;;;;;12.13;8.90;;;;;;;17.03;55.53;98394.41;6189924;23;20447;-92
2024/03/03 10:40:29;;;;;;;11.07;8.90;;;;;;;17.13;55.08;98386.31;6190306;23;20048;-92
2024/03/03 10:42:56;;;;;;;13.63;9.13;;;;;;;17.26;55.96;98380.50;6190323;23;20071;-92
2024/03/03 10:45:23;;;;;;;11.80;8.98;;;;;;;17.36;55.62;98380.34;6217443;23;20020;-92
2024/03/03 10:48:10;;;;;;;15.40;8.88;;;;;;;17.42;54.74;98384.19;6190463;23;20020;-95
2024/03/03 10:50:37;;;;;;;15.65;9.27;;;;;;;17.55;55.72;98381.00;6189557;23;20025;-92
2024/03/03 10:53:12;;;;;;;12.02;8.85;;;;;;;17.61;54.20;98377.69;6189781;23;20028;-92
2024/03/03 10:55:41;;;;;;;13.05;8.50;;;;;;;17.76;55.23;98379.66;6189776;23;20025;-92
2024/03/03 10:58:21;;;;;;;11.90;9.13;;;;;;;17.83;53.47;98384.13;6189802;23;20095;-92
2024/03/03 11:00:48;;;;;;;12.27;8.80;;;;;;;17.92;53.71;98370.81;6215403;23;20039;-93
2024/03/03 11:03:24;;;;;;;14.35;8.57;;;;;;;17.90;52.13;98378.16;6189365;23;20070;-92
2024/03/03 11:05:51;;;;;;;10.55;8.40;;;;;;;17.89;52.85;98376.47;6189693;23;20028;-92
2024/03/03 11:08:35;;;;;;;11.90;8.90;;;;;;;17.77;52.14;98382.16;6189736;23;20048;-92
2024/03/03 11:11:07;;;;;;;10.25;8.57;;;;;;;17.69;51.93;98382.97;6215665;23;20016;-92
2024/03/03 11:13:50;;;;;;;10.10;8.07;;;;;;;17.57;52.17;98382.50;6189258;23;20031;-92
2024/03/03 11:16:18;;;;;;;11.25;8.35;;;;;;;17.54;52.98;98387.34;6134711;23;20027;-92
2024/03/03 11:18:49;;;;;;;10.93;8.40;;;;;;;17.42;52.39;98386.84;6189482;23;20027;-92
2024/03/03 11:21:32;;;;;;;10.25;8.45;;;;;;;17.33;52.43;98386.00;6215906;23;20016;-90
2024/03/03 11:24:04;;;;;;;12.95;8.35;;;;;;;17.28;52.55;98385.66;6189945;23;20383;-92
2024/03/03 11:33:22;;;;;;;12.18;8.45;;;;;;;17.30;54.16;98379.19;6216416;23;20031;-93
2024/03/03 11:36:11;;;;;;;11.45;7.80;;;;;;;17.30;53.46;98378.34;6189446;23;20027;-94
2024/03/03 11:38:45;;;;;;;11.40;8.43;;;;;;;17.38;53.15;98380.19;6189505;23;20103;-93
2024/03/03 11:41:12;;;;;;;15.30;8.15;;;;;;;17.46;54.00;98377.53;6189257;23;20071;-94
2024/03/03 11:47:03;;;;;;;12.43;8.48;;;;;;;17.61;53.90;98371.53;6216002;23;20078;-93
2024/03/03 11:52:49;;;;;;;10.10;7.70;;;;;;;17.71;53.37;98374.84;6215235;23;20025;-93
2024/03/03 11:55:40;;;;;;;12.15;8.63;;;;;;;17.69;52.34;98367.00;6189390;23;20443;-93
2024/03/03 11:58:07;;;;;;;11.95;8.00;;;;;;;17.77;53.31;98371.50;6215437;23;20020;-93
2024/03/03 12:00:35;;;;;;;9.95;7.93;;;;;;;17.80;52.88;98368.50;6188990;23;20483;-93
2024/03/03 12:03:02;;;;;;;12.25;7.75;;;;;;;17.81;52.67;98375.50;6215869;23;20028;-93
2024/03/03 12:06:04;;;;;;;12.60;7.88;;;;;;;17.79;51.74;98376.69;6189720;23;20016;-94
2024/03/03 12:08:33;;;;;;;11.37;8.10;;;;;;;17.89;52.80;98371.16;6189977;23;20021;-94
2024/03/03 12:11:00;;;;;;;10.85;7.97;;;;;;;17.95;52.90;98373.16;6189825;23;20590;-94
2024/03/03 12:17:13;;;;;;;8.90;7.10;;;;;;;18.23;52.86;98373.59;6215770;23;20047;-93
2024/03/03 12:19:41;;;;;;;10.43;7.68;;;;;;;18.38;53.01;98372.06;6189658;23;20404;-94
2024/03/03 12:22:08;;;;;;;9.80;7.07;;;;;;;18.53;53.03;98369.47;6189613;23;20024;-93
2024/03/03 12:25:14;;;;;;;8.50;6.63;;;;;;;18.67;51.30;98362.59;6189463;23;20021;-94
2024/03/03 12:27:53;;;;;;;8.98;6.95;;;;;;;18.91;51.13;98358.94;6189393;23;20024;-93
2024/03/03 12:30:48;;;;;;;9.55;7.43;;;;;;;19.16;51.62;98363.31;6189801;23;20021;-94
2024/03/03 12:33:14;;;;;;;9.07;7.20;;;;;;;19.47;53.01;98352.56;6172195;23;20031;-93
2024/03/03 12:35:42;;;;;;;13.32;7.38;;;;;;;19.81;53.40;98355.75;6189082;23;20031;-93
2024/03/03 12:38:30;;;;;;;14.02;9.65;;;;;;;20.25;51.76;98350.66;6188996;23;20091;-93
2024/03/03 12:40:56;;;;;;;14.13;8.80;;;;;;;20.80;53.10;98350.28;6189607;23;20017;-93